createdAt,value
2019-02-07T00:00:47.824Z,91.72
2019-02-07T00:03:22.654Z,105.92
2019-02-07T00:05:54.764Z,104.12
2019-02-07T00:08:27.259Z,107.80
2019-02-07T00:10:59.291Z,105.03
2019-02-07T00:13:31.380Z,100.58
2019-02-07T00:16:03.488Z,108.70
2019-02-07T00:18:35.507Z,113.60
2019-02-07T00:21:07.976Z,105.07
2019-02-07T00:23:40.017Z,104.95
2019-02-07T00:26:12.527Z,108.40
2019-02-07T00:28:47.187Z,109.37
2019-02-07T00:31:19.480Z,108.35
2019-02-07T00:33:53.065Z,115.50
2019-02-07T00:36:25.020Z,108.97
2019-02-07T00:38:56.987Z,106.92
2019-02-07T00:41:29.046Z,112.70
2019-02-07T00:44:02.669Z,112.88
2019-02-07T00:46:34.594Z,113.45
2019-02-07T00:49:09.326Z,112.68
2019-02-07T00:51:41.245Z,118.37
2019-02-07T00:54:13.328Z,124.70
2019-02-07T00:56:47.333Z,124.10
2019-02-07T00:59:19.560Z,115.42
2019-02-07T01:01:51.670Z,109.50
2019-02-07T01:04:28.772Z,119.22
2019-02-07T01:07:05.104Z,119.80
2019-02-07T01:09:37.144Z,117.60
2019-02-07T01:12:09.139Z,117.10
2019-02-07T01:14:41.148Z,125.10
2019-02-07T01:17:13.665Z,120.02
2019-02-07T01:26:11.795Z,109.32
2019-02-07T01:35:50.495Z,111.75
2019-02-07T01:38:22.430Z,107.75
2019-02-07T01:40:54.426Z,124.87
2019-02-07T01:43:26.376Z,116.47
2019-02-07T01:46:00.766Z,114.40
2019-02-07T01:48:32.835Z,112.37
2019-02-07T01:51:05.000Z,100.05
2019-02-07T01:53:39.395Z,109.42
2019-02-07T01:56:15.323Z,101.97
2019-02-07T01:58:47.320Z,103.17
2019-02-07T02:01:19.219Z,113.60
2019-02-07T02:03:51.166Z,109.25
2019-02-07T02:06:23.239Z,102.17
2019-02-07T02:08:55.406Z,108.17
2019-02-07T02:11:27.344Z,99.85
2019-02-07T02:13:59.537Z,102.05
2019-02-07T02:16:31.510Z,100.82
2019-02-07T02:19:05.303Z,97.97
2019-02-07T02:21:37.622Z,96.12
2019-02-07T02:24:09.710Z,110.72
2019-02-07T02:26:41.616Z,102.12
2019-02-07T02:29:14.625Z,109.63
2019-02-07T02:31:46.595Z,103.07
2019-02-07T02:34:18.832Z,106.07
2019-02-07T02:36:50.751Z,109.40
2019-02-07T02:39:22.903Z,100.97
2019-02-07T02:41:54.856Z,107.60
2019-02-07T02:44:30.149Z,110.90
2019-02-07T02:47:02.181Z,104.63
2019-02-07T02:49:35.964Z,104.83
2019-02-07T02:52:08.519Z,99.05
2019-02-07T02:54:46.903Z,103.90
2019-02-07T02:57:19.138Z,100.00
2019-02-07T02:59:51.187Z,100.10
2019-02-07T03:02:44.960Z,95.75
2019-02-07T03:05:36.196Z,96.95
2019-02-07T03:08:25.732Z,104.03
2019-02-07T03:11:20.193Z,101.33
2019-02-07T03:14:10.041Z,100.38
2019-02-07T03:17:05.666Z,104.23
2019-02-07T03:20:05.760Z,102.38
2019-02-07T03:23:07.479Z,101.18
2019-02-07T03:26:01.705Z,111.68
2019-02-07T03:28:55.732Z,96.40
2019-02-07T03:31:47.453Z,108.92
2019-02-07T03:34:41.740Z,97.82
2019-02-07T03:37:30.581Z,105.00
2019-02-07T03:40:21.907Z,104.40
2019-02-07T03:43:04.813Z,108.45
2019-02-07T03:46:04.043Z,114.67
2019-02-07T03:48:53.804Z,119.90
2019-02-07T03:51:44.052Z,123.13
2019-02-07T03:54:35.285Z,115.00
2019-02-07T03:57:23.321Z,114.08
2019-02-07T04:00:20.272Z,116.55
2019-02-07T04:03:17.242Z,118.85
2019-02-07T04:05:58.979Z,126.02
2019-02-07T04:08:42.686Z,121.42
2019-02-07T04:11:43.156Z,119.87
2019-02-07T04:14:29.155Z,106.65
2019-02-07T04:17:24.726Z,106.00
2019-02-07T04:20:15.556Z,111.22
2019-02-07T04:22:59.984Z,112.77
2019-02-07T04:26:00.580Z,115.72
2019-02-07T04:28:44.716Z,108.92
2019-02-07T04:31:54.205Z,114.30
2019-02-07T04:34:50.806Z,110.22
2019-02-07T04:37:40.335Z,111.10
2019-02-07T04:40:23.952Z,112.37
2019-02-07T04:43:18.089Z,106.85
2019-02-07T04:46:27.239Z,106.43
2019-02-07T04:49:12.338Z,105.32
2019-02-07T04:51:59.696Z,102.60
2019-02-07T04:54:41.819Z,102.32
2019-02-07T04:57:41.773Z,108.72
2019-02-07T05:00:36.364Z,99.20
2019-02-07T05:03:25.885Z,105.67
2019-02-07T05:06:06.218Z,103.45
2019-02-07T05:08:48.466Z,104.92
2019-02-07T05:11:48.404Z,93.70
2019-02-07T05:14:37.868Z,95.72
2019-02-07T05:17:28.087Z,108.85
2019-02-07T05:20:23.978Z,92.27
2019-02-07T05:23:12.815Z,97.15
2019-02-07T05:26:06.459Z,96.32
2019-02-07T05:29:06.676Z,98.55
2019-02-07T05:32:04.853Z,91.97
2019-02-07T05:34:58.446Z,96.70
2019-02-07T05:37:55.474Z,94.60
2019-02-07T05:41:04.590Z,89.30
2019-02-07T05:43:49.742Z,93.67
2019-02-07T05:46:50.459Z,91.87
2019-02-07T05:49:44.127Z,90.55
2019-02-07T05:52:44.680Z,91.47
2019-02-07T05:55:50.467Z,93.58
2019-02-07T05:58:59.173Z,94.85
2019-02-07T06:01:58.028Z,101.80
2019-02-07T06:04:48.811Z,111.47
2019-02-07T06:07:41.240Z,108.55
2019-02-07T06:10:33.611Z,108.52
2019-02-07T06:13:25.093Z,100.65
2019-02-07T06:16:28.212Z,99.03
2019-02-07T06:19:27.393Z,102.75
2019-02-07T06:22:16.340Z,98.75
2019-02-07T06:25:07.140Z,101.05
2019-02-07T06:28:01.023Z,99.83
2019-02-07T06:30:47.015Z,99.20
2019-02-07T06:33:45.878Z,96.08
2019-02-07T06:36:45.864Z,96.63
2019-02-07T06:39:57.917Z,99.90
2019-02-07T06:42:43.492Z,100.27
2019-02-07T06:45:30.040Z,100.18
2019-02-07T06:48:19.914Z,98.12
2019-02-07T06:50:58.094Z,102.75
2019-02-07T06:53:47.819Z,107.63
2019-02-07T06:56:37.279Z,102.05
2019-02-07T06:59:25.618Z,101.45
2019-02-07T07:02:12.870Z,106.27
2019-02-07T07:05:02.676Z,110.37
2019-02-07T07:07:52.196Z,116.22
2019-02-07T07:10:42.993Z,110.95
2019-02-07T07:13:35.695Z,98.58
2019-02-07T07:16:36.021Z,95.22
2019-02-07T07:19:35.853Z,99.07
2019-02-07T07:22:35.905Z,99.10
2019-02-07T07:25:32.364Z,96.92
2019-02-07T07:28:28.319Z,92.40
2019-02-07T07:31:28.195Z,96.67
2019-02-07T07:34:14.852Z,99.28
2019-02-07T07:37:24.236Z,96.67
2019-02-07T07:40:10.691Z,89.83
2019-02-07T07:43:02.975Z,95.03
2019-02-07T07:45:42.673Z,86.70
2019-02-07T07:48:43.967Z,85.97
2019-02-07T07:51:43.274Z,84.20
2019-02-07T07:54:58.107Z,83.12
2019-02-07T07:57:51.700Z,83.78
2019-02-07T08:00:52.377Z,81.40
2019-02-07T08:03:30.529Z,79.20
2019-02-07T08:06:14.355Z,76.28
2019-02-07T08:08:54.225Z,79.15
2019-02-07T08:11:48.195Z,73.37
2019-02-07T08:14:45.495Z,79.50
2019-02-07T08:17:47.374Z,75.90
2019-02-07T08:20:37.315Z,78.60
2019-02-07T08:23:33.574Z,80.12
2019-02-07T08:26:42.894Z,78.65
2019-02-07T08:29:36.449Z,71.12
2019-02-07T08:32:26.161Z,75.47
2019-02-07T08:35:26.302Z,66.90
2019-02-07T08:38:36.021Z,69.35
2019-02-07T08:41:24.070Z,70.83
2019-02-07T08:44:17.447Z,66.33
2019-02-07T08:47:06.885Z,72.62
2019-02-07T08:49:57.702Z,70.05
2019-02-07T08:52:57.723Z,75.25
2019-02-07T08:55:57.040Z,65.35
2019-02-07T08:58:47.840Z,65.65
2019-02-07T09:01:35.669Z,66.28
2019-02-07T09:04:26.043Z,66.45
2019-02-07T09:07:17.642Z,68.05
2019-02-07T09:10:01.948Z,74.40
2019-02-07T09:12:47.864Z,78.78
2019-02-07T09:15:38.204Z,74.05
2019-02-07T09:18:30.832Z,75.95
2019-02-07T09:21:20.302Z,76.45
2019-02-07T09:24:09.903Z,81.65
2019-02-07T09:26:59.485Z,78.25
2019-02-07T09:29:56.633Z,83.22
2019-02-07T09:32:53.248Z,77.67
2019-02-07T09:35:34.297Z,83.22
2019-02-07T09:38:40.156Z,87.02
2019-02-07T09:41:40.283Z,96.05
2019-02-07T09:44:49.400Z,93.22
2019-02-07T09:47:43.187Z,87.95
2019-02-07T09:50:33.983Z,84.55
2019-02-07T09:53:23.528Z,80.80
2019-02-07T09:56:08.426Z,85.72
2019-02-07T09:58:58.307Z,80.90
2019-02-07T10:01:52.340Z,73.35
2019-02-07T10:04:42.120Z,75.57
2019-02-07T10:07:29.908Z,68.47
2019-02-07T10:10:33.535Z,59.98
2019-02-07T10:13:23.582Z,51.37
2019-02-07T10:16:22.185Z,48.75
2019-02-07T10:19:11.821Z,49.77
2019-02-07T10:22:08.708Z,38.70
2019-02-07T10:25:00.030Z,43.25
2019-02-07T10:28:06.504Z,47.58
2019-02-07T10:31:04.282Z,42.58
2019-02-07T10:34:07.215Z,37.17
2019-02-07T10:36:51.119Z,51.68
2019-02-07T10:39:51.127Z,58.50
2019-02-07T10:42:41.200Z,58.80
2019-02-07T10:45:33.442Z,72.03
2019-02-07T10:48:26.643Z,53.48
2019-02-07T10:51:20.126Z,48.20
2019-02-07T10:54:17.028Z,51.15
2019-02-07T10:56:58.563Z,46.20
2019-02-07T11:00:00.336Z,40.17
2019-02-07T11:02:55.312Z,39.00
2019-02-07T11:05:49.040Z,34.70
2019-02-07T11:08:38.646Z,36.65
2019-02-07T11:11:38.629Z,31.25
2019-02-07T11:14:35.151Z,32.70
2019-02-07T11:17:24.849Z,30.92
2019-02-07T11:20:14.481Z,35.10
2019-02-07T11:23:04.147Z,29.42
2019-02-07T11:25:54.034Z,27.60
2019-02-07T11:28:36.707Z,32.98
2019-02-07T11:31:27.500Z,32.85
2019-02-07T11:34:17.022Z,34.20
2019-02-07T11:37:10.407Z,29.27
2019-02-07T11:39:54.452Z,31.75
2019-02-07T11:42:48.057Z,33.38
2019-02-07T11:45:39.074Z,35.03
2019-02-07T11:48:46.411Z,40.23
2019-02-07T11:51:35.769Z,34.27
2019-02-07T11:54:32.603Z,27.15
2019-02-07T11:57:23.532Z,29.98
2019-02-07T12:00:05.630Z,36.25
2019-02-07T12:03:03.156Z,31.12
2019-02-07T12:05:43.224Z,30.57
2019-02-07T12:08:33.116Z,84.80
2019-02-07T12:11:39.686Z,35.23
2019-02-07T12:14:30.607Z,26.37
2019-02-07T12:17:33.555Z,23.87
2019-02-07T12:20:31.484Z,23.00
2019-02-07T12:23:31.390Z,27.52
2019-02-07T12:26:23.432Z,39.20
2019-02-07T12:29:14.234Z,24.32
2019-02-07T12:32:11.237Z,28.07
2019-02-07T12:35:06.856Z,31.40
2019-02-07T12:38:06.428Z,30.20
2019-02-07T12:40:56.108Z,25.08
2019-02-07T12:43:46.203Z,27.98
2019-02-07T12:46:55.975Z,23.60
2019-02-07T12:49:45.639Z,23.00
2019-02-07T12:52:48.478Z,24.70
2019-02-07T12:55:52.069Z,24.98
2019-02-07T12:58:40.790Z,16.05
2019-02-07T13:01:30.463Z,21.62
2019-02-07T13:04:24.411Z,19.80
2019-02-07T13:07:13.851Z,22.25
2019-02-07T13:10:07.910Z,25.02
2019-02-07T13:13:14.586Z,21.57
2019-02-07T13:15:57.211Z,23.73
2019-02-07T13:18:42.297Z,24.90
2019-02-07T13:21:32.621Z,22.17
2019-02-07T13:24:24.620Z,24.52
2019-02-07T13:27:06.835Z,25.48
2019-02-07T13:29:58.310Z,32.35
2019-02-07T13:32:49.556Z,26.82
2019-02-07T13:35:33.529Z,31.77
2019-02-07T13:38:25.239Z,26.02
2019-02-07T13:41:16.190Z,27.85
2019-02-07T13:44:05.864Z,23.27
2019-02-07T13:46:55.949Z,21.57
2019-02-07T13:50:05.812Z,25.72
2019-02-07T13:52:57.247Z,22.42
2019-02-07T13:55:59.845Z,23.80
2019-02-07T13:58:42.583Z,17.25
2019-02-07T14:01:32.027Z,18.27
2019-02-07T14:04:21.688Z,23.22
2019-02-07T14:07:11.493Z,16.57
2019-02-07T14:10:10.336Z,16.75
2019-02-07T14:13:00.190Z,15.25
2019-02-07T14:15:50.969Z,18.92
2019-02-07T14:18:36.912Z,22.90
2019-02-07T14:21:27.596Z,18.55
2019-02-07T14:24:18.820Z,17.32
2019-02-07T14:27:08.340Z,18.40
2019-02-07T14:29:59.098Z,17.55
2019-02-07T14:32:47.905Z,22.67
2019-02-07T14:35:39.917Z,17.20
2019-02-07T14:38:46.223Z,20.17
2019-02-07T14:41:35.619Z,19.20
2019-02-07T14:44:27.630Z,25.45
2019-02-07T14:46:59.861Z,15.83
2019-02-07T14:49:32.759Z,21.12
2019-02-07T14:52:05.179Z,22.60
2019-02-07T14:54:38.345Z,19.12
2019-02-07T14:57:10.415Z,20.10
2019-02-07T14:59:43.040Z,24.87
2019-02-07T15:02:15.407Z,52.25
2019-02-07T15:04:47.335Z,25.90
2019-02-07T15:07:19.398Z,26.45
2019-02-07T15:09:51.317Z,25.08
2019-02-07T15:12:23.250Z,36.30
2019-02-07T15:14:55.207Z,197.07
2019-02-07T15:17:29.910Z,58.92
2019-02-07T15:20:03.106Z,32.85
2019-02-07T15:22:35.130Z,65.37
2019-02-07T15:25:08.041Z,162.82
2019-02-07T15:27:40.805Z,115.15
2019-02-07T15:30:15.739Z,53.30
2019-02-07T15:32:49.294Z,41.77
2019-02-07T15:35:25.990Z,37.42
2019-02-07T15:37:58.769Z,52.10
2019-02-07T15:40:31.138Z,24.57
2019-02-07T15:43:03.362Z,23.85
2019-02-07T15:45:35.547Z,80.25
2019-02-07T15:48:09.639Z,38.98
2019-02-07T15:50:42.883Z,23.62
2019-02-07T15:53:14.800Z,22.40
2019-02-07T15:55:46.847Z,16.40
2019-02-07T15:58:21.378Z,17.95
2019-02-07T16:00:56.856Z,19.65
2019-02-07T16:03:42.411Z,15.68
2019-02-07T16:06:14.511Z,24.55
2019-02-07T16:08:47.805Z,19.57
2019-02-07T16:11:20.439Z,19.20
2019-02-07T16:13:53.819Z,34.48
2019-02-07T16:16:26.182Z,26.02
2019-02-07T16:18:58.621Z,27.42
2019-02-07T16:21:30.803Z,21.93
2019-02-07T16:24:03.305Z,18.67
2019-02-07T16:26:35.630Z,23.15
2019-02-07T16:29:07.806Z,33.95
2019-02-07T16:31:39.950Z,40.20
2019-02-07T16:34:12.357Z,46.83
2019-02-07T16:36:45.217Z,69.22
2019-02-07T16:39:17.631Z,68.78
2019-02-07T16:41:49.724Z,69.58
2019-02-07T16:44:21.934Z,58.95
2019-02-07T16:46:54.552Z,56.02
2019-02-07T16:49:26.930Z,45.65
2019-02-07T16:51:59.534Z,52.88
2019-02-07T16:54:33.074Z,48.33
2019-02-07T16:57:05.140Z,50.15
2019-02-07T16:59:37.193Z,49.73
2019-02-07T17:02:09.639Z,44.73
2019-02-07T17:04:41.744Z,41.90
2019-02-07T17:07:13.669Z,43.65
2019-02-07T17:09:48.251Z,45.95
2019-02-07T17:12:20.250Z,46.20
2019-02-07T17:14:52.275Z,43.30
2019-02-07T17:17:25.422Z,59.55
2019-02-07T17:19:59.175Z,136.77
2019-02-07T17:22:32.327Z,132.55
2019-02-07T17:25:04.806Z,57.60
2019-02-07T17:27:36.770Z,40.65
2019-02-07T17:30:14.119Z,43.33
2019-02-07T17:32:46.352Z,55.83
2019-02-07T17:35:21.576Z,46.65
2019-02-07T17:37:53.999Z,63.10
2019-02-07T17:40:26.699Z,51.02
2019-02-07T17:42:58.810Z,41.68
2019-02-07T17:45:34.232Z,41.65
2019-02-07T17:48:06.500Z,40.25
2019-02-07T17:50:38.996Z,42.95
2019-02-07T17:53:11.294Z,43.13
2019-02-07T17:55:43.361Z,40.83
2019-02-07T17:58:17.938Z,43.00
2019-02-07T18:01:01.701Z,48.08
2019-02-07T18:03:36.048Z,44.40
2019-02-07T18:06:09.492Z,42.58
2019-02-07T18:08:41.523Z,41.58
2019-02-07T18:11:13.551Z,49.80
2019-02-07T18:13:45.566Z,36.85
2019-02-07T18:16:17.540Z,42.58
2019-02-07T18:18:50.093Z,51.77
2019-02-07T18:21:22.029Z,59.98
2019-02-07T18:23:54.087Z,51.25
2019-02-07T18:26:26.039Z,48.13
2019-02-07T18:28:58.550Z,51.68
2019-02-07T18:31:30.584Z,44.20
2019-02-07T18:34:05.877Z,52.30
2019-02-07T18:36:37.786Z,51.60
2019-02-07T18:39:11.271Z,51.95
2019-02-07T18:41:43.653Z,50.08
2019-02-07T18:44:16.210Z,59.00
2019-02-07T18:46:48.158Z,57.48
2019-02-07T18:49:21.932Z,67.75
2019-02-07T18:51:53.920Z,65.87
2019-02-07T18:54:25.853Z,79.03
2019-02-07T18:56:57.991Z,74.82
2019-02-07T18:59:30.354Z,69.12
2019-02-07T19:02:02.541Z,62.55
2019-02-07T19:04:35.666Z,71.25
2019-02-07T19:07:08.005Z,70.12
2019-02-07T19:09:40.354Z,69.27
2019-02-07T19:12:12.727Z,78.87
2019-02-07T19:14:44.875Z,75.50
2019-02-07T19:17:17.269Z,76.60
2019-02-07T19:19:49.780Z,89.60
2019-02-07T19:22:21.853Z,94.55
2019-02-07T19:24:53.848Z,103.60
2019-02-07T19:27:26.405Z,85.07
2019-02-07T19:29:58.992Z,91.02
2019-02-07T19:32:31.076Z,83.60
2019-02-07T19:35:06.777Z,101.82
2019-02-07T19:37:45.479Z,89.62
2019-02-07T19:40:19.521Z,84.25
2019-02-07T19:42:51.560Z,81.20
2019-02-07T19:45:25.210Z,79.55
2019-02-07T19:47:58.375Z,71.53
2019-02-07T19:50:30.800Z,78.42
2019-02-07T19:53:02.909Z,71.55
2019-02-07T19:55:35.398Z,74.40
2019-02-07T19:58:08.313Z,74.22
2019-02-07T20:00:41.869Z,81.37
2019-02-07T20:03:14.320Z,110.68
2019-02-07T20:05:46.553Z,101.00
2019-02-07T20:08:18.758Z,95.10
2019-02-07T20:10:50.720Z,97.92
2019-02-07T20:13:23.272Z,97.67
2019-02-07T20:15:55.295Z,92.45
2019-02-07T20:18:27.316Z,91.72
2019-02-07T20:20:59.369Z,87.62
2019-02-07T20:23:31.435Z,86.00
2019-02-07T20:26:03.681Z,92.47
2019-02-07T20:28:37.146Z,90.60
2019-02-07T20:31:09.168Z,79.42
2019-02-07T20:33:43.574Z,82.90
2019-02-07T20:36:15.527Z,86.32
2019-02-07T20:38:47.600Z,92.50
2019-02-07T20:41:19.528Z,97.12
2019-02-07T20:43:53.063Z,102.97
2019-02-07T20:46:25.117Z,103.30
2019-02-07T20:48:59.908Z,98.12
2019-02-07T20:51:31.816Z,102.87
2019-02-07T20:54:03.848Z,98.05
2019-02-07T20:56:37.541Z,109.60
2019-02-07T20:59:09.592Z,99.90
2019-02-07T21:01:42.380Z,97.10
2019-02-07T21:04:14.678Z,96.53
2019-02-07T21:06:46.639Z,102.87
2019-02-07T21:09:19.362Z,102.10
2019-02-07T21:11:51.317Z,103.20
2019-02-07T21:14:23.511Z,101.30
2019-02-07T21:16:55.508Z,97.82
2019-02-07T21:19:27.445Z,92.97
2019-02-07T21:22:15.182Z,103.50
2019-02-07T21:24:47.985Z,116.03
2019-02-07T21:27:20.023Z,100.62
2019-02-07T21:29:51.926Z,112.68
2019-02-07T21:32:23.980Z,103.83
2019-02-07T21:34:56.339Z,106.58
2019-02-07T21:37:28.523Z,120.42
2019-02-07T21:40:00.485Z,105.10
2019-02-07T21:42:32.414Z,105.30
2019-02-07T21:45:05.383Z,99.17
2019-02-07T21:47:37.340Z,100.40
2019-02-07T21:50:14.956Z,104.38
2019-02-07T21:52:47.083Z,129.32
2019-02-07T21:55:21.988Z,134.20
2019-02-07T21:57:54.071Z,136.82
2019-02-07T22:00:28.749Z,112.12
2019-02-07T22:03:01.151Z,107.87
2019-02-07T22:05:33.644Z,106.92
2019-02-07T22:08:06.920Z,97.25
2019-02-07T22:11:48.447Z,100.05
2019-02-07T22:14:21.991Z,86.95
2019-02-07T22:16:54.008Z,106.72
2019-02-07T22:19:45.409Z,119.05
2019-02-07T22:22:51.466Z,131.45
2019-02-07T22:25:24.230Z,130.80
2019-02-07T22:27:56.176Z,134.70
2019-02-07T22:30:49.432Z,122.70
2019-02-07T22:33:42.336Z,105.63
2019-02-07T22:36:15.162Z,112.32
2019-02-07T22:38:47.229Z,108.47
2019-02-07T22:41:19.195Z,97.97
2019-02-07T22:43:51.141Z,101.12
2019-02-07T22:46:23.068Z,100.27
2019-02-07T22:48:55.698Z,103.62
2019-02-07T22:51:27.691Z,97.95
2019-02-07T22:54:00.660Z,116.25
2019-02-07T22:56:32.608Z,83.12
2019-02-07T22:59:04.807Z,103.62
2019-02-07T23:01:52.416Z,94.32
2019-02-07T23:04:25.655Z,96.37
2019-02-07T23:06:57.610Z,96.57
2019-02-07T23:09:29.739Z,99.22
2019-02-07T23:12:03.952Z,114.90
2019-02-07T23:14:39.345Z,112.20
2019-02-07T23:17:14.200Z,129.10
2019-02-07T23:19:47.246Z,125.93
2019-02-07T23:22:19.665Z,155.70
2019-02-07T23:24:52.782Z,126.23
2019-02-07T23:27:24.916Z,136.80
2019-02-07T23:29:58.185Z,133.67
2019-02-07T23:32:37.367Z,148.57
2019-02-07T23:35:26.014Z,167.10
2019-02-07T23:37:59.602Z,143.07
2019-02-07T23:40:32.332Z,149.87
2019-02-07T23:43:08.898Z,207.30
2019-02-07T23:45:44.167Z,150.60
2019-02-07T23:48:22.125Z,162.45
2019-02-07T23:50:54.590Z,153.20
2019-02-07T23:53:29.852Z,173.07
2019-02-07T23:56:03.778Z,142.30
2019-02-07T23:58:36.954Z,134.07
